LNK weather

Lincoln Airport
Lincoln, Nebraska, United States

Public forecast

Using degrees Fahrenheit for public forecast. Weather courtesy of forecast.io.

Current aviation weather report (METAR) for Lincoln Airport

Retrieved 2019/10/15 01:54 UTC (31 minutes ago):

KLNK 150154Z 17010KT 10SM CLR 16/09 A2980 RMK AO2 SLP092 T01610089

Aviation forecast (TAF) for Lincoln Airport

Retrieved 2019-10-15 00:22 UTC (2 hours ago):

TAF KLNK 142320Z 1500/1524 18018KT P6SM SKC FM150800 32015KT P6SM SCT250 FM151400 33020G28KT P6SM FEW250 FM151700 32024G30KT P6SM OVC100